createdAt,value
2018-12-21T00:00:47.637Z,910.80
2018-12-21T00:02:47.548Z,910.86
2018-12-21T00:03:47.527Z,910.87
2018-12-21T00:04:47.490Z,910.90
2018-12-21T00:05:47.617Z,910.90
2018-12-21T00:06:47.405Z,910.92
2018-12-21T00:07:47.450Z,910.93
2018-12-21T00:08:47.355Z,910.92
2018-12-21T00:09:47.376Z,910.94
2018-12-21T00:10:47.319Z,910.99
2018-12-21T00:11:47.261Z,911.00
2018-12-21T00:12:47.224Z,911.00
2018-12-21T00:13:47.212Z,911.00
2018-12-21T00:14:47.223Z,911.01
2018-12-21T00:15:47.156Z,911.05
2018-12-21T00:16:47.117Z,911.04
2018-12-21T00:17:47.344Z,911.11
2018-12-21T00:18:47.090Z,911.08
2018-12-21T00:19:47.030Z,911.08
2018-12-21T00:20:47.105Z,911.11
2018-12-21T00:21:47.014Z,911.09
2018-12-21T00:22:46.915Z,911.13
2018-12-21T00:23:47.046Z,911.13
2018-12-21T00:24:46.883Z,911.16
2018-12-21T00:25:46.833Z,911.15
2018-12-21T00:26:46.797Z,911.16
2018-12-21T00:27:46.764Z,911.13
2018-12-21T00:28:46.819Z,911.10
2018-12-21T00:29:46.852Z,911.14
2018-12-21T00:30:46.720Z,911.15
2018-12-21T00:31:46.639Z,911.12
2018-12-21T00:32:46.619Z,911.11
2018-12-21T00:33:46.639Z,911.08
2018-12-21T00:34:46.587Z,911.09
2018-12-21T00:35:46.523Z,911.13
2018-12-21T00:36:46.500Z,911.16
2018-12-21T00:37:46.487Z,911.09
2018-12-21T00:38:46.455Z,911.12
2018-12-21T00:39:46.388Z,911.13
2018-12-21T00:41:46.437Z,911.11
2018-12-21T00:42:46.321Z,911.12
2018-12-21T00:43:46.295Z,911.15
2018-12-21T00:44:46.234Z,911.18
2018-12-21T00:45:46.192Z,911.15
2018-12-21T00:46:46.381Z,911.15
2018-12-21T00:47:46.167Z,911.17
2018-12-21T00:48:46.148Z,911.17
2018-12-21T00:49:46.176Z,911.15
2018-12-21T00:50:46.106Z,911.19
2018-12-21T00:51:46.050Z,911.18
2018-12-21T00:52:46.021Z,911.20
2018-12-21T00:53:46.012Z,911.20
2018-12-21T00:54:45.943Z,911.21
2018-12-21T00:55:45.979Z,911.23
2018-12-21T00:56:45.919Z,911.19
2018-12-21T00:57:45.851Z,911.29
2018-12-21T00:58:45.819Z,911.25
2018-12-21T00:59:45.830Z,911.29
2018-12-21T01:00:45.877Z,911.32
2018-12-21T01:01:45.782Z,911.35
2018-12-21T01:02:45.698Z,911.35
2018-12-21T01:03:45.669Z,911.37
2018-12-21T01:04:45.665Z,911.37
2018-12-21T01:05:45.666Z,911.40
2018-12-21T01:06:45.616Z,911.39
2018-12-21T01:07:45.562Z,911.39
2018-12-21T01:08:45.623Z,911.43
2018-12-21T01:09:45.481Z,911.42
2018-12-21T01:10:45.439Z,911.43
2018-12-21T01:11:45.394Z,911.39
2018-12-21T01:12:45.417Z,911.37
2018-12-21T01:13:45.347Z,911.38
2018-12-21T01:14:45.318Z,911.37
2018-12-21T01:15:45.274Z,911.40
2018-12-21T01:16:45.259Z,911.39
2018-12-21T01:17:45.287Z,911.41
2018-12-21T01:18:45.243Z,911.40
2018-12-21T01:19:45.199Z,911.41
2018-12-21T01:20:45.144Z,911.43
2018-12-21T01:21:45.124Z,911.39
2018-12-21T01:22:45.348Z,911.42
2018-12-21T01:23:45.046Z,911.44
2018-12-21T01:24:45.009Z,911.45
2018-12-21T01:25:45.010Z,911.47
2018-12-21T01:26:44.929Z,911.46
2018-12-21T01:27:45.473Z,911.46
2018-12-21T01:28:44.900Z,911.43
2018-12-21T01:29:44.873Z,911.43
2018-12-21T01:30:44.837Z,911.42
2018-12-21T01:31:44.772Z,911.42
2018-12-21T01:32:44.782Z,911.42
2018-12-21T01:33:45.235Z,911.44
2018-12-21T01:34:44.736Z,911.42
2018-12-21T01:35:44.771Z,911.43
2018-12-21T01:36:44.660Z,911.42
2018-12-21T01:37:44.583Z,911.41
2018-12-21T01:38:44.647Z,911.42
2018-12-21T01:39:44.684Z,911.45
2018-12-21T01:40:44.500Z,911.43
2018-12-21T01:41:44.584Z,911.43
2018-12-21T01:42:44.561Z,911.45
2018-12-21T01:43:44.431Z,911.45
2018-12-21T01:44:44.374Z,911.43
2018-12-21T01:45:44.446Z,911.42
2018-12-21T01:46:44.390Z,911.39
2018-12-21T01:47:44.310Z,911.41
2018-12-21T01:48:44.274Z,911.36
2018-12-21T01:49:44.317Z,911.39
2018-12-21T01:50:44.212Z,911.35
2018-12-21T01:51:47.213Z,911.31
2018-12-21T01:52:44.187Z,911.32
2018-12-21T01:53:44.095Z,911.36
2018-12-21T01:54:44.146Z,911.35
2018-12-21T01:55:44.490Z,911.36
2018-12-21T01:56:44.067Z,911.34
2018-12-21T01:57:43.968Z,911.33
2018-12-21T01:58:43.969Z,911.34
2018-12-21T01:59:43.943Z,911.35
2018-12-21T02:00:43.940Z,911.37
2018-12-21T02:02:43.916Z,911.41
2018-12-21T02:03:43.805Z,911.37
2018-12-21T02:04:43.777Z,911.41
2018-12-21T02:05:43.708Z,911.43
2018-12-21T02:06:43.903Z,911.41
2018-12-21T02:07:43.709Z,911.42
2018-12-21T02:08:43.641Z,911.40
2018-12-21T02:09:43.617Z,911.35
2018-12-21T02:10:43.558Z,911.33
2018-12-21T02:11:43.523Z,911.34
2018-12-21T02:12:43.733Z,911.31
2018-12-21T02:13:43.486Z,911.31
2018-12-21T02:14:43.436Z,911.27
2018-12-21T02:15:43.405Z,911.25
2018-12-21T02:16:43.391Z,911.24
2018-12-21T02:17:43.555Z,911.25
2018-12-21T02:18:43.315Z,911.26
2018-12-21T02:19:43.298Z,911.25
2018-12-21T02:20:43.251Z,911.26
2018-12-21T02:21:43.248Z,911.24
2018-12-21T02:22:43.195Z,911.25
2018-12-21T02:23:43.377Z,911.24
2018-12-21T02:24:43.116Z,911.26
2018-12-21T02:25:43.115Z,911.27
2018-12-21T02:26:43.053Z,911.23
2018-12-21T02:27:43.023Z,911.24
2018-12-21T02:28:43.006Z,911.24
2018-12-21T02:29:43.042Z,911.21
2018-12-21T02:30:43.003Z,911.20
2018-12-21T02:31:42.925Z,911.19
2018-12-21T02:32:42.858Z,911.18
2018-12-21T02:33:42.837Z,911.14
2018-12-21T02:34:42.826Z,911.13
2018-12-21T02:35:42.781Z,911.13
2018-12-21T02:36:42.744Z,911.11
2018-12-21T02:37:42.719Z,911.06
2018-12-21T02:38:42.737Z,911.07
2018-12-21T02:39:42.688Z,911.04
2018-12-21T02:40:43.100Z,911.02
2018-12-21T02:41:42.578Z,911.00
2018-12-21T02:42:42.573Z,911.00
2018-12-21T02:43:42.509Z,910.97
2018-12-21T02:44:42.506Z,910.96
2018-12-21T02:45:42.480Z,910.92
2018-12-21T02:46:42.785Z,910.92
2018-12-21T02:47:42.422Z,910.92
2018-12-21T02:48:42.411Z,910.88
2018-12-21T02:49:42.430Z,910.89
2018-12-21T02:50:42.310Z,910.87
2018-12-21T02:51:42.296Z,910.87
2018-12-21T02:52:42.252Z,910.88
2018-12-21T02:53:42.264Z,910.84
2018-12-21T02:54:42.203Z,910.83
2018-12-21T02:55:42.144Z,910.84
2018-12-21T02:56:42.333Z,910.83
2018-12-21T02:57:42.107Z,910.83
2018-12-21T02:58:42.067Z,910.84
2018-12-21T02:59:42.024Z,910.82
2018-12-21T03:00:42.022Z,910.80
2018-12-21T03:01:41.969Z,910.75
2018-12-21T03:02:41.932Z,910.78
2018-12-21T03:03:41.914Z,910.75
2018-12-21T03:04:41.876Z,910.76
2018-12-21T03:05:41.879Z,910.80
2018-12-21T03:06:41.796Z,910.80
2018-12-21T03:07:41.759Z,910.81
2018-12-21T03:08:41.939Z,910.77
2018-12-21T03:09:41.704Z,910.78
2018-12-21T03:10:41.705Z,910.76
2018-12-21T03:11:41.641Z,910.73
2018-12-21T03:12:41.607Z,910.75
2018-12-21T03:13:41.770Z,910.77
2018-12-21T03:14:41.545Z,910.72
2018-12-21T03:15:41.488Z,910.76
2018-12-21T03:16:41.488Z,910.80
2018-12-21T03:17:41.514Z,910.81
2018-12-21T03:18:41.417Z,910.82
2018-12-21T03:19:41.386Z,910.79
2018-12-21T03:20:41.357Z,910.74
2018-12-21T03:21:41.328Z,910.76
2018-12-21T03:22:41.322Z,910.78
2018-12-21T03:23:41.271Z,910.74
2018-12-21T03:24:41.370Z,910.72
2018-12-21T03:25:41.374Z,910.71
2018-12-21T03:26:41.159Z,910.70
2018-12-21T03:27:41.135Z,910.69
2018-12-21T03:28:41.103Z,910.67
2018-12-21T03:29:41.046Z,910.66
2018-12-21T03:30:41.254Z,910.68
2018-12-21T03:31:41.011Z,910.66
2018-12-21T03:32:41.002Z,910.66
2018-12-21T03:33:40.928Z,910.65
2018-12-21T03:34:40.917Z,910.67
2018-12-21T03:35:40.907Z,910.69
2018-12-21T03:36:40.850Z,910.66
2018-12-21T03:37:40.813Z,910.64
2018-12-21T03:38:40.787Z,910.66
2018-12-21T03:39:40.758Z,910.66
2018-12-21T03:40:40.739Z,910.69
2018-12-21T03:41:40.837Z,910.63
2018-12-21T03:42:40.651Z,910.69
2018-12-21T03:43:40.626Z,910.69
2018-12-21T03:44:40.585Z,910.71
2018-12-21T03:45:40.553Z,910.71
2018-12-21T03:46:40.664Z,910.71
2018-12-21T03:47:40.484Z,910.71
2018-12-21T03:48:40.471Z,910.71
2018-12-21T03:49:40.447Z,910.69
2018-12-21T03:50:40.371Z,910.74
2018-12-21T03:51:40.359Z,910.72
2018-12-21T03:52:40.329Z,910.72
2018-12-21T03:53:40.290Z,910.71
2018-12-21T03:54:40.308Z,910.71
2018-12-21T03:55:40.242Z,910.73
2018-12-21T03:56:40.406Z,910.73
2018-12-21T03:57:40.194Z,910.70
2018-12-21T03:58:40.134Z,910.67
2018-12-21T03:59:40.107Z,910.72
2018-12-21T04:00:40.065Z,910.71
2018-12-21T04:01:40.039Z,910.72
2018-12-21T04:02:40.012Z,910.74
2018-12-21T04:03:40.010Z,910.76
2018-12-21T04:04:39.951Z,910.75
2018-12-21T04:05:39.928Z,910.71
2018-12-21T04:06:40.023Z,910.70
2018-12-21T04:07:39.857Z,910.71
2018-12-21T04:08:39.807Z,910.68
2018-12-21T04:09:39.805Z,910.70
2018-12-21T04:10:39.749Z,910.69
2018-12-21T04:11:39.958Z,910.69
2018-12-21T04:12:39.726Z,910.69
2018-12-21T04:13:39.660Z,910.68
2018-12-21T04:14:39.615Z,910.69
2018-12-21T04:15:39.602Z,910.66
2018-12-21T04:16:39.811Z,910.65
2018-12-21T04:17:39.509Z,910.68
2018-12-21T04:18:39.517Z,910.66
2018-12-21T04:19:39.469Z,910.64
2018-12-21T04:20:39.426Z,910.68
2018-12-21T04:21:39.656Z,910.70
2018-12-21T04:22:39.369Z,910.68
2018-12-21T04:23:39.326Z,910.69
2018-12-21T04:24:39.294Z,910.68
2018-12-21T04:25:39.255Z,910.67
2018-12-21T04:26:39.379Z,910.65
2018-12-21T04:27:39.214Z,910.69
2018-12-21T04:28:39.169Z,910.70
2018-12-21T04:29:39.144Z,910.70
2018-12-21T04:30:39.101Z,910.66
2018-12-21T04:31:39.062Z,910.67
2018-12-21T04:32:39.021Z,910.69
2018-12-21T04:33:39.018Z,910.68
2018-12-21T04:34:38.981Z,910.67
2018-12-21T04:35:38.945Z,910.70
2018-12-21T04:36:38.919Z,910.65
2018-12-21T04:37:38.899Z,910.70
2018-12-21T04:38:38.834Z,910.67
2018-12-21T04:39:38.820Z,910.68
2018-12-21T04:40:38.792Z,910.71
2018-12-21T04:41:38.767Z,910.69
2018-12-21T04:42:38.708Z,910.70
2018-12-21T04:43:38.681Z,910.70
2018-12-21T04:44:38.652Z,910.69
2018-12-21T04:45:38.621Z,910.71
2018-12-21T04:46:38.594Z,910.73
2018-12-21T04:47:38.555Z,910.67
2018-12-21T04:48:38.543Z,910.70
2018-12-21T04:49:38.503Z,910.69
2018-12-21T04:50:38.588Z,910.72
2018-12-21T04:51:38.429Z,910.70
2018-12-21T04:52:43.240Z,910.71
2018-12-21T04:53:38.365Z,910.70
2018-12-21T04:54:38.326Z,910.77
2018-12-21T04:55:38.285Z,910.73
2018-12-21T04:56:38.265Z,910.76
2018-12-21T04:57:38.230Z,910.76
2018-12-21T04:58:38.225Z,910.72
2018-12-21T04:59:38.171Z,910.74
2018-12-21T05:00:38.159Z,910.72
2018-12-21T05:01:38.109Z,910.66
2018-12-21T05:02:38.075Z,910.70
2018-12-21T05:03:38.024Z,910.66
2018-12-21T05:04:38.363Z,910.63
2018-12-21T05:05:39.530Z,910.63
2018-12-21T05:06:37.929Z,910.64
2018-12-21T05:07:37.969Z,910.65
2018-12-21T05:08:37.854Z,910.66
2018-12-21T05:09:37.831Z,910.62
2018-12-21T05:10:38.028Z,910.64
2018-12-21T05:11:37.812Z,910.68
2018-12-21T05:12:37.748Z,910.68
2018-12-21T05:13:37.721Z,910.69
2018-12-21T05:14:37.680Z,910.69
2018-12-21T05:15:38.523Z,910.73
2018-12-21T05:16:37.629Z,910.73
2018-12-21T05:17:37.585Z,910.73
2018-12-21T05:18:37.556Z,910.80
2018-12-21T05:19:37.519Z,910.77
2018-12-21T05:20:37.488Z,910.77
2018-12-21T05:21:37.442Z,910.81
2018-12-21T05:22:37.427Z,910.76
2018-12-21T05:23:37.399Z,910.75
2018-12-21T05:24:37.351Z,910.70
2018-12-21T05:25:37.338Z,910.71
2018-12-21T05:26:37.296Z,910.69
2018-12-21T05:27:37.248Z,910.67
2018-12-21T05:28:37.221Z,910.69
2018-12-21T05:29:39.524Z,910.67
2018-12-21T05:30:37.160Z,910.71
2018-12-21T05:31:37.120Z,910.72
2018-12-21T05:32:37.242Z,910.68
2018-12-21T05:33:37.066Z,910.68
2018-12-21T05:34:37.029Z,910.70
2018-12-21T05:35:37.001Z,910.65
2018-12-21T05:36:36.961Z,910.69
2018-12-21T05:37:36.932Z,910.65
2018-12-21T05:38:36.929Z,910.63
2018-12-21T05:39:36.869Z,910.62
2018-12-21T05:40:36.844Z,910.53
2018-12-21T05:41:36.797Z,910.53
2018-12-21T05:42:36.797Z,910.54
2018-12-21T05:43:36.743Z,910.50
2018-12-21T05:44:36.714Z,910.47
2018-12-21T05:45:36.711Z,910.48
2018-12-21T05:46:36.652Z,910.47
2018-12-21T05:47:36.612Z,910.47
2018-12-21T05:48:36.561Z,910.46
2018-12-21T05:49:36.550Z,910.46
2018-12-21T05:50:36.497Z,910.47
2018-12-21T05:51:36.457Z,910.48
2018-12-21T05:52:36.418Z,910.48
2018-12-21T05:53:36.401Z,910.49
2018-12-21T05:54:36.357Z,910.49
2018-12-21T05:55:36.352Z,910.47
2018-12-21T05:56:36.308Z,910.54
2018-12-21T05:57:36.274Z,910.57
2018-12-21T05:58:36.449Z,910.56
2018-12-21T05:59:36.219Z,910.57
2018-12-21T06:00:36.183Z,910.57
2018-12-21T06:01:36.151Z,910.57
2018-12-21T06:02:36.130Z,910.61
2018-12-21T06:03:36.076Z,910.62
2018-12-21T06:04:36.191Z,910.62
2018-12-21T06:05:36.011Z,910.61
2018-12-21T06:06:35.977Z,910.65
2018-12-21T06:07:35.989Z,910.63
2018-12-21T06:08:35.928Z,910.67
2018-12-21T06:09:35.879Z,910.69
2018-12-21T06:10:35.945Z,910.70
2018-12-21T06:11:35.806Z,910.70
2018-12-21T06:12:35.766Z,910.66
2018-12-21T06:13:35.757Z,910.67
2018-12-21T06:14:35.719Z,910.67
2018-12-21T06:15:35.705Z,910.67
2018-12-21T06:16:35.658Z,910.66
2018-12-21T06:17:35.625Z,910.71
2018-12-21T06:18:35.584Z,910.66
2018-12-21T06:19:35.634Z,910.68
2018-12-21T06:20:35.518Z,910.66
2018-12-21T06:21:35.493Z,910.73
2018-12-21T06:22:35.435Z,910.72
2018-12-21T06:23:35.425Z,910.71
2018-12-21T06:24:35.397Z,910.71
2018-12-21T06:25:35.348Z,910.72
2018-12-21T06:26:35.349Z,910.73
2018-12-21T06:27:35.293Z,910.77
2018-12-21T06:28:35.279Z,910.78
2018-12-21T06:29:35.237Z,910.81
2018-12-21T06:30:35.186Z,910.80
2018-12-21T06:31:35.190Z,910.80
2018-12-21T06:32:35.122Z,910.82
2018-12-21T06:33:35.117Z,910.82
2018-12-21T06:34:35.066Z,910.82
2018-12-21T06:35:35.031Z,910.84
2018-12-21T06:36:34.999Z,910.84
2018-12-21T06:37:34.944Z,910.83
2018-12-21T06:38:34.956Z,910.82
2018-12-21T06:39:34.892Z,910.83
2018-12-21T06:40:34.884Z,910.82
2018-12-21T06:41:34.843Z,910.79
2018-12-21T06:42:34.811Z,910.77
2018-12-21T06:43:34.781Z,910.79
2018-12-21T06:44:34.734Z,910.79
2018-12-21T06:45:34.714Z,910.80
2018-12-21T06:46:34.684Z,910.83
2018-12-21T06:47:34.746Z,910.81
2018-12-21T06:48:34.617Z,910.80
2018-12-21T06:49:34.576Z,910.78
2018-12-21T06:50:34.547Z,910.81
2018-12-21T06:51:34.495Z,910.82
2018-12-21T06:52:34.979Z,910.81
2018-12-21T06:53:34.437Z,910.84
2018-12-21T06:54:34.427Z,910.89
2018-12-21T06:55:34.357Z,910.86
2018-12-21T06:56:34.336Z,910.90
2018-12-21T06:57:34.301Z,910.88
2018-12-21T06:58:34.260Z,910.89
2018-12-21T06:59:34.254Z,910.91
2018-12-21T07:00:34.213Z,910.87
2018-12-21T07:01:34.159Z,910.90
2018-12-21T07:02:34.150Z,910.91
2018-12-21T07:03:34.114Z,910.93
2018-12-21T07:04:34.090Z,910.89
2018-12-21T07:05:34.050Z,910.92
2018-12-21T07:06:34.008Z,910.92
2018-12-21T07:07:33.979Z,910.88
2018-12-21T07:08:33.927Z,910.88
2018-12-21T07:09:33.965Z,910.91
2018-12-21T07:10:33.864Z,910.91
2018-12-21T07:11:33.867Z,910.94
2018-12-21T07:12:33.827Z,910.95
2018-12-21T07:13:33.764Z,910.97
2018-12-21T07:14:33.759Z,910.95
2018-12-21T07:15:33.713Z,910.93
2018-12-21T07:16:33.679Z,910.94
2018-12-21T07:17:33.637Z,910.95
2018-12-21T07:18:33.609Z,910.95
2018-12-21T07:19:33.951Z,910.97
2018-12-21T07:20:33.568Z,910.95
2018-12-21T07:21:33.505Z,910.98
2018-12-21T07:22:33.492Z,910.95
2018-12-21T07:23:33.459Z,910.97
2018-12-21T07:24:33.415Z,910.97
2018-12-21T07:25:33.381Z,910.97
2018-12-21T07:26:33.351Z,910.98
2018-12-21T07:27:33.317Z,911.01
2018-12-21T07:28:33.280Z,911.01
2018-12-21T07:29:33.234Z,911.03
2018-12-21T07:30:33.214Z,911.02
2018-12-21T07:31:33.203Z,911.05
2018-12-21T07:32:33.147Z,911.06
2018-12-21T07:33:33.110Z,911.09
2018-12-21T07:34:33.194Z,911.08
2018-12-21T07:35:33.064Z,911.14
2018-12-21T07:36:33.037Z,911.18
2018-12-21T07:37:33.014Z,911.17
2018-12-21T07:38:32.956Z,911.19
2018-12-21T07:39:32.916Z,911.20
2018-12-21T07:40:32.899Z,911.24
2018-12-21T07:41:32.847Z,911.23
2018-12-21T07:42:32.807Z,911.23
2018-12-21T07:43:32.787Z,911.27
2018-12-21T07:44:32.769Z,911.30
2018-12-21T07:45:32.723Z,911.29
2018-12-21T07:46:32.688Z,911.28
2018-12-21T07:47:32.657Z,911.30
2018-12-21T07:48:32.638Z,911.31
2018-12-21T07:49:32.606Z,911.32
2018-12-21T07:50:32.744Z,911.33
2018-12-21T07:51:32.512Z,911.33
2018-12-21T07:52:32.602Z,911.33
2018-12-21T07:53:35.940Z,911.32
2018-12-21T07:54:32.440Z,911.32
2018-12-21T07:55:32.474Z,911.33
2018-12-21T07:56:32.353Z,911.32
2018-12-21T07:57:32.527Z,911.35
2018-12-21T07:58:32.303Z,911.34
2018-12-21T07:59:32.265Z,911.37
2018-12-21T08:00:32.232Z,911.38
2018-12-21T08:01:32.198Z,911.38
2018-12-21T08:02:32.312Z,911.39
2018-12-21T08:03:32.129Z,911.37
2018-12-21T08:04:32.095Z,911.43
2018-12-21T08:05:32.064Z,911.44
2018-12-21T08:06:32.033Z,911.45
2018-12-21T08:08:31.980Z,911.44
2018-12-21T08:09:31.924Z,911.45
2018-12-21T08:10:31.877Z,911.50
2018-12-21T08:11:31.875Z,911.49
2018-12-21T08:12:32.033Z,911.51
2018-12-21T08:13:31.804Z,911.52
2018-12-21T08:14:31.761Z,911.49
2018-12-21T08:15:31.731Z,911.55
2018-12-21T08:16:31.677Z,911.53
2018-12-21T08:17:31.871Z,911.55
2018-12-21T08:18:31.652Z,911.58
2018-12-21T08:19:32.242Z,911.56
2018-12-21T08:20:31.576Z,911.51
2018-12-21T08:21:31.547Z,911.54
2018-12-21T08:22:31.492Z,911.51
2018-12-21T08:23:31.478Z,911.53
2018-12-21T08:24:31.444Z,911.52
2018-12-21T08:25:31.403Z,911.52
2018-12-21T08:26:31.409Z,911.54
2018-12-21T08:27:31.355Z,911.57
2018-12-21T08:28:31.284Z,911.57
2018-12-21T08:29:31.269Z,911.55
2018-12-21T08:30:31.275Z,911.55
2018-12-21T08:31:31.216Z,911.55
2018-12-21T08:32:31.157Z,911.56
2018-12-21T08:33:31.160Z,911.60
2018-12-21T08:34:31.085Z,911.61
2018-12-21T08:35:31.083Z,911.63
2018-12-21T08:36:31.091Z,911.63
2018-12-21T08:37:31.031Z,911.66
2018-12-21T08:38:30.973Z,911.68
2018-12-21T08:39:30.945Z,911.73
2018-12-21T08:40:30.917Z,911.75
2018-12-21T08:41:30.915Z,911.78
2018-12-21T08:42:30.841Z,911.78
2018-12-21T08:43:30.804Z,911.80
2018-12-21T08:44:30.966Z,911.83
2018-12-21T08:45:30.742Z,911.84
2018-12-21T08:46:30.699Z,911.83
2018-12-21T08:47:30.654Z,911.85
2018-12-21T08:48:30.620Z,911.83
2018-12-21T08:49:32.368Z,911.80
2018-12-21T08:50:30.565Z,911.82
2018-12-21T08:51:30.538Z,911.85
2018-12-21T08:52:30.512Z,911.83
2018-12-21T08:53:30.478Z,911.83
2018-12-21T08:54:30.519Z,911.88
2018-12-21T08:55:30.394Z,911.91
2018-12-21T08:56:30.372Z,911.91
2018-12-21T08:57:30.330Z,911.89
2018-12-21T08:58:30.323Z,911.91
2018-12-21T08:59:30.255Z,911.90
2018-12-21T09:00:30.371Z,911.88
2018-12-21T09:01:30.195Z,911.92
2018-12-21T09:02:30.155Z,911.92
2018-12-21T09:03:30.137Z,911.89
2018-12-21T09:04:32.316Z,911.95
2018-12-21T09:05:30.061Z,911.93
2018-12-21T09:06:30.095Z,911.95
2018-12-21T09:07:30.020Z,911.97
2018-12-21T09:08:29.969Z,912.00
2018-12-21T09:09:29.913Z,912.03
2018-12-21T09:10:29.920Z,912.04
2018-12-21T09:12:29.854Z,912.05
2018-12-21T09:13:29.804Z,912.06
2018-12-21T09:14:29.788Z,912.07
2018-12-21T09:15:29.766Z,912.07
2018-12-21T09:16:29.706Z,912.07
2018-12-21T09:17:29.678Z,912.12
2018-12-21T09:18:29.665Z,912.14
2018-12-21T09:19:29.637Z,912.15
2018-12-21T09:20:29.619Z,912.14
2018-12-21T09:21:29.535Z,912.18
2018-12-21T09:22:29.513Z,912.16
2018-12-21T09:23:29.478Z,912.17
2018-12-21T09:24:29.431Z,912.19
2018-12-21T09:25:29.410Z,912.13
2018-12-21T09:26:29.369Z,912.14
2018-12-21T09:27:29.324Z,912.11
2018-12-21T09:28:29.305Z,912.12
2018-12-21T09:29:29.272Z,912.12
2018-12-21T09:30:29.228Z,912.10
2018-12-21T09:31:29.217Z,912.11
2018-12-21T09:32:29.201Z,912.16
2018-12-21T09:33:29.395Z,912.15
2018-12-21T09:34:29.108Z,912.16
2018-12-21T09:35:29.055Z,912.20
2018-12-21T09:36:29.026Z,912.20
2018-12-21T09:37:29.017Z,912.23
2018-12-21T09:38:29.080Z,912.22
2018-12-21T09:39:28.940Z,912.22
2018-12-21T09:40:28.901Z,912.26
2018-12-21T09:41:28.869Z,912.25
2018-12-21T09:42:28.833Z,912.29
2018-12-21T09:43:28.928Z,912.27
2018-12-21T09:44:28.767Z,912.29
2018-12-21T09:45:28.775Z,912.28
2018-12-21T09:46:28.724Z,912.36
2018-12-21T09:47:28.705Z,912.31
2018-12-21T09:48:28.647Z,912.31
2018-12-21T09:49:28.616Z,912.29
2018-12-21T09:50:28.747Z,912.33
2018-12-21T09:51:28.538Z,912.31
2018-12-21T09:52:28.526Z,912.31
2018-12-21T09:53:28.473Z,912.30
2018-12-21T09:54:28.432Z,912.30
2018-12-21T09:55:28.402Z,912.33
2018-12-21T09:56:28.376Z,912.34
2018-12-21T09:57:28.352Z,912.35
2018-12-21T09:58:28.319Z,912.39
2018-12-21T09:59:28.299Z,912.45
2018-12-21T10:00:28.241Z,912.46
2018-12-21T10:01:28.572Z,912.50
2018-12-21T10:02:35.555Z,912.54
2018-12-21T10:03:28.157Z,912.53
2018-12-21T10:04:28.136Z,912.54
2018-12-21T10:05:28.098Z,912.59
2018-12-21T10:06:28.063Z,912.57
2018-12-21T10:07:28.216Z,912.60
2018-12-21T10:08:27.994Z,912.60
2018-12-21T10:09:27.982Z,912.61
2018-12-21T10:10:27.929Z,912.65
2018-12-21T10:11:27.902Z,912.66
2018-12-21T10:12:27.871Z,912.68
2018-12-21T10:13:27.825Z,912.68
2018-12-21T10:14:27.805Z,912.68
2018-12-21T10:15:27.747Z,912.72
2018-12-21T10:16:27.744Z,912.72
2018-12-21T10:17:27.727Z,912.69
2018-12-21T10:18:27.674Z,912.73
2018-12-21T10:19:27.849Z,912.70
2018-12-21T10:20:27.618Z,912.70
2018-12-21T10:21:27.569Z,912.71
2018-12-21T10:22:27.572Z,912.74
2018-12-21T10:23:27.663Z,912.73
2018-12-21T10:24:27.479Z,912.71
2018-12-21T10:25:27.446Z,912.75
2018-12-21T10:26:27.398Z,912.74
2018-12-21T10:27:27.380Z,912.76
2018-12-21T10:28:27.338Z,912.77
2018-12-21T10:29:27.315Z,912.75
2018-12-21T10:30:27.321Z,912.77
2018-12-21T10:31:27.309Z,912.71
2018-12-21T10:32:27.244Z,912.74
2018-12-21T10:33:27.196Z,912.74
2018-12-21T10:34:27.188Z,912.74
2018-12-21T10:35:27.128Z,912.76
2018-12-21T10:36:27.094Z,912.79
2018-12-21T10:37:27.276Z,912.75
2018-12-21T10:38:27.090Z,912.79
2018-12-21T10:39:27.001Z,912.79
2018-12-21T10:40:26.975Z,912.76
2018-12-21T10:41:26.932Z,912.83
2018-12-21T10:42:27.028Z,912.81
2018-12-21T10:43:26.875Z,912.83
2018-12-21T10:44:26.906Z,912.78
2018-12-21T10:45:26.814Z,912.78
2018-12-21T10:46:26.782Z,912.80
2018-12-21T10:47:26.770Z,912.80
2018-12-21T10:48:26.697Z,912.79
2018-12-21T10:49:26.692Z,912.81
2018-12-21T10:50:26.661Z,912.76
2018-12-21T10:51:26.681Z,912.80
2018-12-21T10:52:26.575Z,912.75
2018-12-21T10:53:26.549Z,912.75
2018-12-21T10:54:27.017Z,912.73
2018-12-21T10:55:26.512Z,912.75
2018-12-21T10:56:26.727Z,912.72
2018-12-21T10:57:26.426Z,912.71
2018-12-21T10:58:26.624Z,912.70
2018-12-21T10:59:26.389Z,912.74
2018-12-21T11:00:26.341Z,912.70
2018-12-21T11:01:26.319Z,912.73
2018-12-21T11:02:26.276Z,912.77
2018-12-21T11:03:26.290Z,912.72
2018-12-21T11:04:26.378Z,912.75
2018-12-21T11:05:26.213Z,912.75
2018-12-21T11:06:26.158Z,912.76
2018-12-21T11:07:26.142Z,912.74
2018-12-21T11:08:26.082Z,912.73
2018-12-21T11:09:26.056Z,912.72
2018-12-21T11:10:26.023Z,912.76
2018-12-21T11:11:26.006Z,912.77
2018-12-21T11:12:25.975Z,912.76
2018-12-21T11:13:25.951Z,912.79
2018-12-21T11:14:25.906Z,912.77
2018-12-21T11:15:25.894Z,912.80
2018-12-21T11:16:25.840Z,912.81
2018-12-21T11:17:25.822Z,912.81
2018-12-21T11:18:25.784Z,912.82
2018-12-21T11:19:25.743Z,912.84
2018-12-21T11:20:25.729Z,912.85
2018-12-21T11:21:25.692Z,912.83
2018-12-21T11:22:25.653Z,912.84
2018-12-21T11:23:25.613Z,912.80
2018-12-21T11:24:25.592Z,912.84
2018-12-21T11:25:25.553Z,912.83
2018-12-21T11:26:25.824Z,912.89
2018-12-21T11:27:25.601Z,912.87
2018-12-21T11:28:25.751Z,912.90
2018-12-21T11:29:25.450Z,912.88
2018-12-21T11:30:25.414Z,912.91
2018-12-21T11:31:25.382Z,912.89
2018-12-21T11:32:25.356Z,912.88
2018-12-21T11:33:25.343Z,912.89
2018-12-21T11:34:25.299Z,912.86
2018-12-21T11:35:25.259Z,912.86
2018-12-21T11:36:25.237Z,912.84
2018-12-21T11:37:25.204Z,912.82
2018-12-21T11:38:25.176Z,912.83
2018-12-21T11:39:25.155Z,912.82
2018-12-21T11:40:25.102Z,912.82
2018-12-21T11:41:25.089Z,912.80
2018-12-21T11:42:25.070Z,912.77
2018-12-21T11:43:25.023Z,912.77
2018-12-21T11:44:25.012Z,912.80
2018-12-21T11:45:24.953Z,912.77
2018-12-21T11:46:24.925Z,912.78
2018-12-21T11:47:24.894Z,912.78
2018-12-21T11:48:24.881Z,912.75
2018-12-21T11:49:24.856Z,912.84
2018-12-21T11:50:24.805Z,912.80
2018-12-21T11:51:24.796Z,912.83
2018-12-21T11:52:24.774Z,912.82
2018-12-21T11:53:24.731Z,912.85
2018-12-21T11:54:24.700Z,912.84
2018-12-21T11:55:24.663Z,912.84
2018-12-21T11:56:24.632Z,912.83
2018-12-21T11:57:24.813Z,912.79
2018-12-21T11:58:24.575Z,912.83
2018-12-21T11:59:24.546Z,912.81
2018-12-21T12:00:24.520Z,912.82
2018-12-21T12:01:24.552Z,912.79
2018-12-21T12:02:24.451Z,912.85
2018-12-21T12:03:24.450Z,912.85
2018-12-21T12:04:24.404Z,912.84
2018-12-21T12:05:24.372Z,912.83
2018-12-21T12:06:24.365Z,912.82
2018-12-21T12:07:24.352Z,912.83
2018-12-21T12:08:24.726Z,912.84
2018-12-21T12:09:24.258Z,912.84
2018-12-21T12:10:24.226Z,912.76
2018-12-21T12:11:24.190Z,912.77
2018-12-21T12:12:24.181Z,912.78
2018-12-21T12:13:24.123Z,912.79
2018-12-21T12:14:24.258Z,912.80
2018-12-21T12:15:24.064Z,912.79
2018-12-21T12:16:24.065Z,912.78
2018-12-21T12:17:24.025Z,912.80
2018-12-21T12:18:23.992Z,912.76
2018-12-21T12:19:23.967Z,912.77
2018-12-21T12:20:23.975Z,912.80
2018-12-21T12:21:23.913Z,912.80
2018-12-21T12:22:23.876Z,912.81
2018-12-21T12:23:23.835Z,912.87
2018-12-21T12:24:23.881Z,912.83
2018-12-21T12:26:23.764Z,912.85
2018-12-21T12:27:23.725Z,912.83
2018-12-21T12:28:23.700Z,912.89
2018-12-21T12:29:23.656Z,912.88
2018-12-21T12:30:23.641Z,912.87
2018-12-21T12:31:23.694Z,912.87
2018-12-21T12:32:23.599Z,912.91
2018-12-21T12:33:23.561Z,912.87
2018-12-21T12:34:23.531Z,912.87